createdAt,value
2023-05-10T00:00:33.174Z,13.3
2023-05-10T00:02:43.624Z,13.3
2023-05-10T00:04:49.240Z,13.3
2023-05-10T00:06:55.023Z,13.3
2023-05-10T00:11:06.553Z,13.3
2023-05-10T00:13:12.395Z,13.3
2023-05-10T00:15:18.066Z,13.3
2023-05-10T00:17:26.896Z,13.3
2023-05-10T00:19:32.561Z,13.2
2023-05-10T00:25:49.850Z,13.2
2023-05-10T00:27:55.596Z,13.3
2023-05-10T00:30:01.366Z,13.2
2023-05-10T00:36:21.646Z,13.3
2023-05-10T00:40:33.166Z,13.3
2023-05-10T00:51:04.939Z,13.3
2023-05-10T00:52:09.319Z,13.3
2023-05-10T00:54:15.094Z,13.3
2023-05-10T01:00:35.371Z,13.4
2023-05-10T01:02:41.260Z,13.3
2023-05-10T01:06:52.674Z,13.3
2023-05-10T01:13:10.018Z,13.3
2023-05-10T01:15:18.694Z,13.3
2023-05-10T01:17:24.502Z,13.4
2023-05-10T01:19:30.224Z,13.4
2023-05-10T01:21:35.997Z,13.4
2023-05-10T01:23:41.750Z,13.4
2023-05-10T01:25:47.514Z,13.3
2023-05-10T01:27:53.277Z,13.4
2023-05-10T01:34:13.559Z,13.4
2023-05-10T01:36:19.315Z,13.4
2023-05-10T01:50:01.243Z,13.4
2023-05-10T01:52:07.019Z,13.5
2023-05-10T01:54:12.773Z,13.4
2023-05-10T01:56:18.549Z,13.5
2023-05-10T01:58:27.248Z,13.5
2023-05-10T02:00:33.106Z,13.5
2023-05-10T02:02:38.858Z,13.5
2023-05-10T02:19:27.943Z,13.5
2023-05-10T02:23:39.460Z,13.5
2023-05-10T02:32:05.553Z,13.5
2023-05-10T02:34:11.288Z,13.5
2023-05-10T02:42:37.322Z,13.5
2023-05-10T02:44:43.091Z,13.5
2023-05-10T02:46:48.905Z,13.6
2023-05-10T02:49:59.031Z,13.6
2023-05-10T02:52:04.793Z,13.6
2023-05-10T02:54:10.558Z,13.6
2023-05-10T03:02:36.625Z,13.5
2023-05-10T03:04:42.385Z,13.5
2023-05-10T03:06:48.138Z,13.6
2023-05-10T03:11:02.622Z,13.6
2023-05-10T03:13:08.534Z,13.6
2023-05-10T03:15:14.177Z,13.6
2023-05-10T03:25:45.964Z,13.6
2023-05-10T03:32:03.249Z,13.5
2023-05-10T03:40:29.274Z,13.5
2023-05-10T03:42:35.034Z,13.5
2023-05-10T03:47:12.082Z,13.5
2023-05-10T03:49:17.858Z,13.5
2023-05-10T03:51:23.650Z,13.5
2023-05-10T04:01:55.445Z,13.5
2023-05-10T04:08:15.722Z,13.5
2023-05-10T04:10:21.466Z,13.4
2023-05-10T04:12:27.248Z,13.4
2023-05-10T04:14:33.011Z,13.5
2023-05-10T04:16:38.771Z,13.4
2023-05-10T04:18:44.530Z,13.5
2023-05-10T04:20:50.300Z,13.5
2023-05-10T04:22:59.029Z,13.5
2023-05-10T04:25:04.800Z,13.4
2023-05-10T04:27:10.550Z,13.5
2023-05-10T04:29:16.316Z,13.4
2023-05-10T04:31:22.184Z,13.5
2023-05-10T04:33:27.821Z,13.4
2023-05-10T04:37:42.340Z,13.4
2023-05-10T04:39:48.108Z,13.4
2023-05-10T04:41:53.866Z,13.4
2023-05-10T04:42:58.235Z,13.4
2023-05-10T04:47:12.005Z,13.4
2023-05-10T04:49:15.516Z,13.4
2023-05-10T04:51:24.257Z,13.4
2023-05-10T04:53:30.017Z,13.4
2023-05-10T05:14:30.658Z,13.2
2023-05-10T05:20:50.952Z,13.1
2023-05-10T05:22:56.697Z,13.1
2023-05-10T05:25:02.479Z,13.1
2023-05-10T05:27:08.236Z,13.1
2023-05-10T05:31:19.787Z,13.2
2023-05-10T05:33:25.502Z,13.2
2023-05-10T05:35:34.239Z,13.2
2023-05-10T05:37:40.005Z,13.2
2023-05-10T05:39:45.759Z,13.2
2023-05-10T05:40:50.140Z,13.2
2023-05-10T05:42:55.927Z,13.2
2023-05-10T05:47:07.431Z,13.3
2023-05-10T05:49:16.162Z,13.3
2023-05-10T05:51:21.921Z,13.4
2023-05-10T05:53:27.658Z,13.4
2023-05-10T06:01:50.772Z,13.7
2023-05-10T06:04:01.268Z,13.7
2023-05-10T06:06:06.776Z,13.6
2023-05-10T06:08:12.551Z,13.6
2023-05-10T06:14:29.816Z,13.6
2023-05-10T06:18:44.338Z,13.6
2023-05-10T06:22:55.872Z,13.5
2023-05-10T06:25:01.621Z,13.5
2023-05-10T06:27:07.400Z,13.5
2023-05-10T06:29:13.138Z,13.5
2023-05-10T06:33:27.649Z,13.7
2023-05-10T06:35:33.421Z,13.7
2023-05-10T06:37:39.212Z,13.8
2023-05-10T06:38:43.548Z,13.7
2023-05-10T06:40:49.308Z,13.7
2023-05-10T06:42:55.101Z,13.7
2023-05-10T06:45:00.831Z,13.8
2023-05-10T06:57:38.443Z,13.7
2023-05-10T07:03:58.708Z,13.4
2023-05-10T07:08:10.247Z,13.3
2023-05-10T07:12:21.830Z,13.3
2023-05-10T07:14:27.545Z,13.3
2023-05-10T07:18:42.100Z,13.4
2023-05-10T07:20:47.856Z,13.4
2023-05-10T07:22:53.597Z,13.5
2023-05-10T07:27:05.126Z,13.6
2023-05-10T07:29:10.882Z,13.5
2023-05-10T07:31:19.632Z,13.5
2023-05-10T07:35:31.186Z,13.8
2023-05-10T07:38:02.481Z,13.9
2023-05-10T07:40:08.249Z,14
2023-05-10T07:42:14.005Z,14.1
2023-05-10T07:44:22.786Z,14.3
2023-05-10T07:52:45.805Z,15.6
2023-05-10T07:54:51.582Z,15.8
2023-05-10T07:56:57.368Z,15.9
2023-05-10T07:59:06.139Z,15.7
2023-05-10T08:01:11.906Z,15.7
2023-05-10T08:03:17.809Z,15.7
2023-05-10T08:05:23.466Z,15.9
2023-05-10T08:07:29.231Z,16
2023-05-10T08:24:18.389Z,15.4
2023-05-10T08:26:24.133Z,15.3
2023-05-10T08:28:32.905Z,15.4
2023-05-10T08:30:38.686Z,15.4
2023-05-10T08:32:44.470Z,15.5
2023-05-10T08:33:48.854Z,15.6
2023-05-10T08:38:00.405Z,15.4
2023-05-10T08:40:06.193Z,15.4
2023-05-10T08:42:14.923Z,15.5
2023-05-10T08:46:26.576Z,15.2
2023-05-10T08:50:38.046Z,15
2023-05-10T08:52:43.856Z,14.9
2023-05-10T08:54:49.594Z,14.8
2023-05-10T08:56:58.328Z,14.8
2023-05-10T09:05:21.487Z,14.5
2023-05-10T09:07:27.214Z,14.5
2023-05-10T09:09:32.974Z,14.5
2023-05-10T09:11:41.698Z,14.5
2023-05-10T09:13:47.480Z,14.4
2023-05-10T09:15:53.221Z,14.5
2023-05-10T09:17:59.033Z,14.5
2023-05-10T09:22:10.576Z,14.6
2023-05-10T09:31:41.024Z,14.5
2023-05-10T09:33:46.832Z,14.5
2023-05-10T09:35:52.570Z,14.6
2023-05-10T09:52:41.743Z,15.6
2023-05-10T09:54:50.487Z,15.6
2023-05-10T09:56:56.256Z,15.7
2023-05-10T10:03:13.587Z,15.9
2023-05-10T10:05:19.469Z,15.9
2023-05-10T10:11:39.734Z,16.4
2023-05-10T10:13:45.452Z,16.5
2023-05-10T10:15:51.309Z,16.7
2023-05-10T10:17:57.127Z,16.7
2023-05-10T10:20:02.828Z,16.8
2023-05-10T10:24:17.312Z,16.7
2023-05-10T10:26:23.105Z,16.6
2023-05-10T10:29:33.236Z,16.4
2023-05-10T10:31:39.106Z,16.4
2023-05-10T10:35:50.590Z,16.2
2023-05-10T10:37:59.346Z,16.2
2023-05-10T10:40:05.099Z,16.3
2023-05-10T10:42:10.892Z,16.2
2023-05-10T10:46:22.451Z,16
2023-05-10T10:48:28.187Z,15.9
2023-05-10T10:50:33.984Z,16
2023-05-10T10:56:54.289Z,16.3
2023-05-10T10:59:00.056Z,16.1
2023-05-10T11:01:05.904Z,16.3
2023-05-10T11:03:11.675Z,16.6
2023-05-10T11:05:17.617Z,16.8
2023-05-10T11:07:26.134Z,16.7
2023-05-10T11:09:31.913Z,16.8
2023-05-10T11:11:37.720Z,17
2023-05-10T11:13:43.466Z,17
2023-05-10T11:15:49.242Z,16.9
2023-05-10T11:17:55.049Z,16.8
2023-05-10T11:20:00.766Z,16.8
2023-05-10T11:22:09.554Z,17
2023-05-10T11:24:15.337Z,17
2023-05-10T11:26:21.074Z,17
2023-05-10T11:28:52.328Z,17.4
2023-05-10T11:30:58.120Z,17.5
2023-05-10T11:33:03.888Z,18
2023-05-10T11:35:12.600Z,18.2
2023-05-10T11:37:18.374Z,18.3
2023-05-10T11:39:24.189Z,18.5
2023-05-10T11:41:29.944Z,18.4
2023-05-10T11:43:35.732Z,18.5
2023-05-10T11:45:41.468Z,18.2
2023-05-10T11:47:47.312Z,18.3
2023-05-10T11:49:55.983Z,18.5
2023-05-10T11:52:01.750Z,18.6
2023-05-10T12:04:39.353Z,18.6
2023-05-10T12:06:46.688Z,18.6
2023-05-10T12:10:58.188Z,18.6
2023-05-10T12:13:03.984Z,18.5
2023-05-10T12:15:09.733Z,18.5
2023-05-10T12:17:15.517Z,18.4
2023-05-10T12:24:40.156Z,17.6
2023-05-10T12:30:57.451Z,17.5
2023-05-10T12:33:06.262Z,17.5
2023-05-10T12:35:11.956Z,17.5
2023-05-10T12:37:17.739Z,17.6
2023-05-10T12:39:23.539Z,17.5
2023-05-10T12:41:29.303Z,17.4
2023-05-10T12:47:49.614Z,17.5
2023-05-10T12:49:55.351Z,17.7
2023-05-10T12:52:01.140Z,17.7
2023-05-10T12:58:34.396Z,17.6
2023-05-10T13:00:24.233Z,17.6
2023-05-10T13:02:32.984Z,17.5
2023-05-10T13:04:38.783Z,17.4
2023-05-10T13:08:50.268Z,17.8
2023-05-10T13:10:56.061Z,18
2023-05-10T13:13:01.831Z,18.1
2023-05-10T13:15:07.604Z,18.1
2023-05-10T13:17:16.430Z,17.8
2023-05-10T13:21:27.887Z,17.8
2023-05-10T13:22:39.853Z,17.8
2023-05-10T13:26:43.801Z,18
2023-05-10T13:28:49.572Z,18.1
2023-05-10T13:30:58.353Z,17.9
2023-05-10T13:33:04.124Z,17.7
2023-05-10T13:35:09.822Z,17.9
2023-05-10T13:37:15.601Z,18.2
2023-05-10T13:39:21.376Z,18.1
2023-05-10T13:41:27.156Z,17.9
2023-05-10T13:47:47.496Z,18.1
2023-05-10T13:54:04.771Z,17.9
2023-05-10T13:56:10.526Z,17.8
2023-05-10T13:58:16.299Z,18.1
2023-05-10T14:00:25.059Z,17.8
2023-05-10T14:02:30.938Z,17.9
2023-05-10T14:04:36.583Z,18.1
2023-05-10T14:06:42.361Z,18.3
2023-05-10T14:08:48.189Z,18.5
2023-05-10T14:12:59.668Z,18.5
2023-05-10T14:15:08.420Z,18.8
2023-05-10T14:17:14.195Z,18.9
2023-05-10T14:19:19.973Z,18.9
2023-05-10T14:20:24.336Z,18.7
2023-05-10T14:22:30.097Z,18.9
2023-05-10T14:24:35.871Z,19.3
2023-05-10T14:26:41.641Z,19.7
2023-05-10T14:28:50.402Z,18.9
2023-05-10T14:30:56.150Z,18.6
2023-05-10T14:33:01.947Z,18.6
2023-05-10T14:35:08.268Z,18.8
2023-05-10T14:37:13.445Z,18.9
2023-05-10T14:39:19.235Z,18.7
2023-05-10T14:41:24.996Z,18.7
2023-05-10T14:43:33.736Z,19
2023-05-10T14:45:39.562Z,18.9
2023-05-10T14:47:45.262Z,18.7
2023-05-10T14:51:56.782Z,18.4
2023-05-10T14:58:17.059Z,18.1
2023-05-10T15:00:22.824Z,18.1
2023-05-10T15:13:00.449Z,16.6
2023-05-10T15:17:12.004Z,16.7
2023-05-10T15:19:43.267Z,16.6
2023-05-10T15:21:49.041Z,16.6
2023-05-10T15:23:54.817Z,16.4
2023-05-10T15:28:09.345Z,16.4
2023-05-10T15:30:15.138Z,16.2
2023-05-10T15:36:32.464Z,15.8
2023-05-10T15:40:47.009Z,15.4
2023-05-10T15:42:52.785Z,15.3
2023-05-10T15:44:58.540Z,15.2
2023-05-10T15:47:04.400Z,15.2
2023-05-10T15:51:15.880Z,15.1
2023-05-10T15:53:21.662Z,15.1
2023-05-10T15:55:30.404Z,15.2
2023-05-10T15:59:41.969Z,15.2
2023-05-10T16:01:47.810Z,15.2
2023-05-10T16:03:53.540Z,15.2
2023-05-10T16:05:59.320Z,15.3
2023-05-10T16:08:05.116Z,15.3
2023-05-10T16:10:13.865Z,15.3
2023-05-10T16:12:19.648Z,15.3
2023-05-10T16:14:25.397Z,15.3
2023-05-10T16:15:29.807Z,15.2
2023-05-10T16:19:41.365Z,15.3
2023-05-10T16:23:55.896Z,15.2
2023-05-10T16:26:01.675Z,15.2
2023-05-10T16:28:07.440Z,15.3
2023-05-10T16:30:13.243Z,15.4
2023-05-10T16:32:19.024Z,15.5
2023-05-10T16:34:24.793Z,15.6
2023-05-10T16:47:02.455Z,16
2023-05-10T16:51:14.029Z,16.1
2023-05-10T16:53:22.763Z,16
2023-05-10T16:55:28.595Z,15.9
2023-05-10T16:57:34.365Z,15.9
2023-05-10T16:59:40.122Z,15.9
2023-05-10T17:01:45.925Z,16.1
2023-05-10T17:03:51.819Z,16.1
2023-05-10T17:05:57.472Z,16.2
2023-05-10T17:08:06.197Z,16.3
2023-05-10T17:10:11.977Z,16.1
2023-05-10T17:13:22.106Z,16.1
2023-05-10T17:15:27.935Z,16.2
2023-05-10T17:19:39.443Z,16.3
2023-05-10T17:21:48.184Z,16.1
2023-05-10T17:23:53.970Z,16
2023-05-10T17:26:01.694Z,15.9
2023-05-10T17:32:17.101Z,15.8
2023-05-10T17:34:22.925Z,15.8
2023-05-10T17:36:31.649Z,15.8
2023-05-10T17:38:37.456Z,15.8
2023-05-10T17:40:43.205Z,15.7
2023-05-10T17:42:48.987Z,15.8
2023-05-10T17:44:54.783Z,15.8
2023-05-10T17:51:15.066Z,15.6
2023-05-10T17:53:20.884Z,15.6
2023-05-10T17:55:26.636Z,15.5
2023-05-10T17:57:32.441Z,15.5
2023-05-10T17:59:38.220Z,15.5
2023-05-10T18:01:44.161Z,15.5
2023-05-10T18:05:58.618Z,15.5
2023-05-10T18:08:04.356Z,15.5
2023-05-10T18:10:11.745Z,15.4
2023-05-10T18:13:21.848Z,15.4
2023-05-10T18:17:33.488Z,15.3
2023-05-10T18:19:42.155Z,15.2
2023-05-10T18:21:47.928Z,15.2
2023-05-10T18:30:11.075Z,15.1
2023-05-10T18:32:16.846Z,15.1
2023-05-10T18:34:25.598Z,15.1
2023-05-10T18:36:31.367Z,15.1
2023-05-10T18:38:37.164Z,15.1
2023-05-10T18:40:42.967Z,15
2023-05-10T18:42:48.724Z,15
2023-05-10T18:44:54.493Z,15
2023-05-10T18:47:00.294Z,14.9
2023-05-10T18:49:09.042Z,15
2023-05-10T18:51:14.831Z,15
2023-05-10T18:53:20.612Z,14.9
2023-05-10T18:55:26.375Z,14.9
2023-05-10T18:57:32.170Z,14.9
2023-05-10T18:59:37.963Z,14.9
2023-05-10T19:01:44.704Z,14.9
2023-05-10T19:14:47.842Z,14.5
2023-05-10T19:16:56.582Z,14.6
2023-05-10T19:23:14.961Z,14.5
2023-05-10T19:25:19.838Z,14.5
2023-05-10T19:27:25.464Z,14.4
2023-05-10T19:29:31.207Z,14.4
2023-05-10T19:40:03.034Z,14.4
2023-05-10T19:42:08.788Z,14.4
2023-05-10T19:44:14.574Z,14.4
2023-05-10T19:46:23.372Z,14.5
2023-05-10T19:48:29.108Z,14.5
2023-05-10T19:50:34.876Z,14.5
2023-05-10T19:52:40.668Z,14.5
2023-05-10T19:58:57.966Z,14.3
2023-05-10T20:06:22.657Z,14.3
2023-05-10T20:08:28.421Z,14.3
2023-05-10T20:10:34.206Z,14.3
2023-05-10T20:12:39.967Z,14.2
2023-05-10T20:14:48.715Z,14.3
2023-05-10T20:16:54.525Z,14.2
2023-05-10T20:19:00.327Z,14.3
2023-05-10T20:21:06.050Z,14.3
2023-05-10T20:25:17.614Z,14.3
2023-05-10T20:27:23.377Z,14.3
2023-05-10T20:29:32.109Z,14.3
2023-05-10T20:33:43.676Z,14.4
2023-05-10T20:35:49.463Z,14.4
2023-05-10T20:40:01.014Z,14.3
2023-05-10T20:42:06.808Z,14.2
2023-05-10T20:44:15.542Z,14.2
2023-05-10T20:46:21.399Z,14.2
2023-05-10T20:48:27.108Z,14.1
2023-05-10T20:54:44.431Z,14.1
2023-05-10T20:56:50.225Z,14.1
2023-05-10T21:01:04.753Z,14.2
2023-05-10T21:03:10.579Z,14.2
2023-05-10T21:04:14.895Z,14.1
2023-05-10T21:14:46.759Z,14.1
2023-05-10T21:16:52.540Z,14.1
2023-05-10T21:18:58.411Z,14.1
2023-05-10T21:21:04.090Z,14.1
2023-05-10T21:23:09.881Z,14.1
2023-05-10T21:27:24.388Z,14
2023-05-10T21:29:30.154Z,14.1
2023-05-10T21:31:35.970Z,14.1
2023-05-10T21:37:53.274Z,14.1
2023-05-10T21:39:59.049Z,14.1
2023-05-10T21:42:07.812Z,14
2023-05-10T21:46:19.437Z,13.9
2023-05-10T21:48:25.118Z,13.9
2023-05-10T21:50:30.876Z,13.9
2023-05-10T21:52:36.661Z,13.9
2023-05-10T21:54:42.425Z,13.9
2023-05-10T22:02:07.140Z,13.8
2023-05-10T22:04:12.852Z,13.8
2023-05-10T22:06:18.616Z,13.8
2023-05-10T22:08:24.396Z,13.8
2023-05-10T22:10:33.136Z,13.7
2023-05-10T22:12:38.881Z,13.7
2023-05-10T22:14:44.648Z,13.7
2023-05-10T22:16:50.521Z,13.7
2023-05-10T22:18:56.249Z,13.7
2023-05-10T22:21:01.943Z,13.8
2023-05-10T22:25:16.457Z,13.7
2023-05-10T22:27:22.270Z,13.7
2023-05-10T22:31:33.896Z,13.7
2023-05-10T22:42:05.559Z,13.6
2023-05-10T22:44:11.321Z,13.6
2023-05-10T22:46:17.147Z,13.6
2023-05-10T22:48:22.852Z,13.5
2023-05-10T22:50:28.618Z,13.5
2023-05-10T22:52:34.392Z,13.5
2023-05-10T22:54:43.143Z,13.5
2023-05-10T22:56:48.910Z,13.5
2023-05-10T22:58:54.677Z,13.5
2023-05-10T23:09:52.008Z,13.5
2023-05-10T23:11:57.775Z,13.4
2023-05-10T23:14:03.557Z,13.4
2023-05-10T23:18:15.049Z,13.4
2023-05-10T23:22:29.566Z,13.5
2023-05-10T23:24:35.303Z,13.4
2023-05-10T23:28:46.846Z,13.5
2023-05-10T23:30:52.607Z,13.5
2023-05-10T23:32:58.381Z,13.4
2023-05-10T23:35:04.101Z,13.4
2023-05-10T23:37:12.862Z,13.4
2023-05-10T23:39:18.621Z,13.4
2023-05-10T23:43:30.155Z,13.4
2023-05-10T23:45:35.975Z,13.4
2023-05-10T23:47:41.767Z,13.4
2023-05-10T23:49:47.446Z,13.4
2023-05-10T23:56:07.720Z,13.4
2023-05-10T23:57:12.072Z,13.4
